sensor_id;sensor_type;location;lat;lon;timestamp;P1;durP1;ratioP1;P2;durP2;ratioP2
11453;SDS011;5783;55.174;61.310;2022-11-20T00:01:59;3.90;;;3.07;;
11453;SDS011;5783;55.174;61.310;2022-11-20T00:04:28;3.90;;;3.00;;
11453;SDS011;5783;55.174;61.310;2022-11-20T00:06:57;3.77;;;3.10;;
11453;SDS011;5783;55.174;61.310;2022-11-20T00:09:26;3.87;;;2.93;;
11453;SDS011;5783;55.174;61.310;2022-11-20T00:11:55;4.77;;;3.00;;
11453;SDS011;5783;55.174;61.310;2022-11-20T00:14:24;3.83;;;3.33;;
11453;SDS011;5783;55.174;61.310;2022-11-20T00:16:53;3.60;;;2.93;;
11453;SDS011;5783;55.174;61.310;2022-11-20T00:19:22;4.30;;;3.40;;
11453;SDS011;5783;55.174;61.310;2022-11-20T00:21:51;4.57;;;3.50;;
11453;SDS011;5783;55.174;61.310;2022-11-20T00:24:21;4.50;;;3.47;;
11453;SDS011;5783;55.174;61.310;2022-11-20T00:26:50;3.87;;;3.30;;
11453;SDS011;5783;55.174;61.310;2022-11-20T00:29:19;4.60;;;3.33;;
11453;SDS011;5783;55.174;61.310;2022-11-20T00:31:48;3.70;;;3.20;;
11453;SDS011;5783;55.174;61.310;2022-11-20T00:34:17;4.97;;;3.57;;
11453;SDS011;5783;55.174;61.310;2022-11-20T00:36:46;4.27;;;3.30;;
11453;SDS011;5783;55.174;61.310;2022-11-20T00:39:15;3.53;;;3.20;;
11453;SDS011;5783;55.174;61.310;2022-11-20T00:41:44;4.57;;;3.40;;
11453;SDS011;5783;55.174;61.310;2022-11-20T00:44:14;3.80;;;3.40;;
11453;SDS011;5783;55.174;61.310;2022-11-20T00:46:43;4.67;;;3.10;;
11453;SDS011;5783;55.174;61.310;2022-11-20T00:49:12;4.97;;;3.50;;
11453;SDS011;5783;55.174;61.310;2022-11-20T00:51:41;3.40;;;2.83;;
11453;SDS011;5783;55.174;61.310;2022-11-20T00:54:10;3.53;;;2.90;;
11453;SDS011;5783;55.174;61.310;2022-11-20T00:56:39;4.60;;;3.20;;
11453;SDS011;5783;55.174;61.310;2022-11-20T00:59:08;4.10;;;3.20;;
11453;SDS011;5783;55.174;61.310;2022-11-20T01:01:38;3.73;;;2.90;;
11453;SDS011;5783;55.174;61.310;2022-11-20T01:04:07;3.77;;;2.93;;
11453;SDS011;5783;55.174;61.310;2022-11-20T01:06:36;4.33;;;3.27;;
11453;SDS011;5783;55.174;61.310;2022-11-20T01:11:55;4.30;;;3.10;;
11453;SDS011;5783;55.174;61.310;2022-11-20T01:14:24;5.43;;;3.33;;
11453;SDS011;5783;55.174;61.310;2022-11-20T01:16:54;3.83;;;2.90;;
11453;SDS011;5783;55.174;61.310;2022-11-20T01:19:23;3.53;;;2.60;;
11453;SDS011;5783;55.174;61.310;2022-11-20T01:21:52;3.33;;;2.80;;
11453;SDS011;5783;55.174;61.310;2022-11-20T01:24:22;3.43;;;2.90;;
11453;SDS011;5783;55.174;61.310;2022-11-20T01:26:51;3.83;;;2.80;;
11453;SDS011;5783;55.174;61.310;2022-11-20T01:32:09;3.87;;;3.20;;
11453;SDS011;5783;55.174;61.310;2022-11-20T01:34:38;3.73;;;2.80;;
11453;SDS011;5783;55.174;61.310;2022-11-20T01:37:07;3.20;;;2.47;;
11453;SDS011;5783;55.174;61.310;2022-11-20T01:39:37;3.53;;;3.00;;
11453;SDS011;5783;55.174;61.310;2022-11-20T01:42:06;3.73;;;2.80;;
11453;SDS011;5783;55.174;61.310;2022-11-20T01:44:56;3.93;;;3.10;;
11453;SDS011;5783;55.174;61.310;2022-11-20T01:47:31;4.67;;;3.00;;
11453;SDS011;5783;55.174;61.310;2022-11-20T01:55:46;4.47;;;3.13;;
11453;SDS011;5783;55.174;61.310;2022-11-20T01:58:18;4.17;;;3.27;;
11453;SDS011;5783;55.174;61.310;2022-11-20T02:00:49;4.57;;;2.90;;
11453;SDS011;5783;55.174;61.310;2022-11-20T02:03:20;3.77;;;2.97;;
11453;SDS011;5783;55.174;61.310;2022-11-20T02:08:58;4.10;;;2.87;;
11453;SDS011;5783;55.174;61.310;2022-11-20T02:11:27;3.47;;;2.90;;
11453;SDS011;5783;55.174;61.310;2022-11-20T02:13:58;3.33;;;3.03;;
11453;SDS011;5783;55.174;61.310;2022-11-20T02:24:58;5.07;;;3.00;;
11453;SDS011;5783;55.174;61.310;2022-11-20T02:27:30;4.40;;;3.17;;
11453;SDS011;5783;55.174;61.310;2022-11-20T02:32:48;3.60;;;2.77;;
11453;SDS011;5783;55.174;61.310;2022-11-20T02:38:07;3.47;;;2.97;;
11453;SDS011;5783;55.174;61.310;2022-11-20T02:40:37;3.63;;;2.90;;
11453;SDS011;5783;55.174;61.310;2022-11-20T02:43:06;3.47;;;3.00;;
11453;SDS011;5783;55.174;61.310;2022-11-20T02:45:36;4.03;;;2.90;;
11453;SDS011;5783;55.174;61.310;2022-11-20T02:48:06;3.37;;;2.87;;
11453;SDS011;5783;55.174;61.310;2022-11-20T02:53:24;3.40;;;3.10;;
11453;SDS011;5783;55.174;61.310;2022-11-20T02:55:53;3.57;;;3.00;;
11453;SDS011;5783;55.174;61.310;2022-11-20T02:58:23;3.13;;;2.83;;
11453;SDS011;5783;55.174;61.310;2022-11-20T03:00:52;3.67;;;2.80;;
11453;SDS011;5783;55.174;61.310;2022-11-20T03:03:21;3.30;;;2.87;;
11453;SDS011;5783;55.174;61.310;2022-11-20T03:05:50;4.07;;;2.90;;
11453;SDS011;5783;55.174;61.310;2022-11-20T03:08:19;3.83;;;3.00;;
11453;SDS011;5783;55.174;61.310;2022-11-20T03:10:49;4.30;;;3.10;;
11453;SDS011;5783;55.174;61.310;2022-11-20T03:13:18;4.63;;;3.40;;
11453;SDS011;5783;55.174;61.310;2022-11-20T03:15:47;3.67;;;2.97;;
11453;SDS011;5783;55.174;61.310;2022-11-20T03:18:16;4.23;;;3.23;;
11453;SDS011;5783;55.174;61.310;2022-11-20T03:20:46;3.47;;;3.13;;
11453;SDS011;5783;55.174;61.310;2022-11-20T03:23:15;5.17;;;3.03;;
11453;SDS011;5783;55.174;61.310;2022-11-20T03:25:44;4.07;;;3.03;;
11453;SDS011;5783;55.174;61.310;2022-11-20T03:28:13;4.07;;;3.13;;
11453;SDS011;5783;55.174;61.310;2022-11-20T03:30:42;4.07;;;3.10;;
11453;SDS011;5783;55.174;61.310;2022-11-20T03:33:11;3.77;;;3.07;;
11453;SDS011;5783;55.174;61.310;2022-11-20T03:35:41;4.27;;;3.20;;
11453;SDS011;5783;55.174;61.310;2022-11-20T03:38:10;4.57;;;3.20;;
11453;SDS011;5783;55.174;61.310;2022-11-20T03:40:39;3.57;;;2.90;;
11453;SDS011;5783;55.174;61.310;2022-11-20T03:43:09;3.57;;;2.80;;
11453;SDS011;5783;55.174;61.310;2022-11-20T03:45:38;4.27;;;3.20;;
11453;SDS011;5783;55.174;61.310;2022-11-20T03:48:07;4.27;;;3.27;;
11453;SDS011;5783;55.174;61.310;2022-11-20T03:50:36;4.07;;;3.20;;
11453;SDS011;5783;55.174;61.310;2022-11-20T03:53:05;4.50;;;3.20;;
11453;SDS011;5783;55.174;61.310;2022-11-20T03:55:34;3.90;;;3.07;;
11453;SDS011;5783;55.174;61.310;2022-11-20T03:58:03;3.40;;;3.00;;
11453;SDS011;5783;55.174;61.310;2022-11-20T04:00:32;4.07;;;3.23;;
11453;SDS011;5783;55.174;61.310;2022-11-20T04:03:02;4.23;;;3.53;;
11453;SDS011;5783;55.174;61.310;2022-11-20T04:05:32;4.13;;;3.50;;
11453;SDS011;5783;55.174;61.310;2022-11-20T04:08:02;4.03;;;3.53;;
11453;SDS011;5783;55.174;61.310;2022-11-20T04:10:31;3.70;;;3.03;;
11453;SDS011;5783;55.174;61.310;2022-11-20T04:13:00;4.13;;;3.40;;
11453;SDS011;5783;55.174;61.310;2022-11-20T04:15:29;3.87;;;3.00;;
11453;SDS011;5783;55.174;61.310;2022-11-20T04:17:58;3.93;;;3.30;;
11453;SDS011;5783;55.174;61.310;2022-11-20T04:20:27;4.87;;;3.50;;
11453;SDS011;5783;55.174;61.310;2022-11-20T04:22:56;5.10;;;3.93;;
11453;SDS011;5783;55.174;61.310;2022-11-20T04:25:25;4.40;;;4.00;;
11453;SDS011;5783;55.174;61.310;2022-11-20T04:27:55;5.17;;;3.73;;
11453;SDS011;5783;55.174;61.310;2022-11-20T04:30:24;6.60;;;4.00;;
11453;SDS011;5783;55.174;61.310;2022-11-20T04:32:53;5.77;;;4.27;;
11453;SDS011;5783;55.174;61.310;2022-11-20T04:35:22;4.37;;;3.60;;
11453;SDS011;5783;55.174;61.310;2022-11-20T04:37:51;5.10;;;3.80;;
11453;SDS011;5783;55.174;61.310;2022-11-20T04:40:21;5.37;;;4.00;;
11453;SDS011;5783;55.174;61.310;2022-11-20T04:42:49;5.90;;;4.23;;
11453;SDS011;5783;55.174;61.310;2022-11-20T04:45:18;5.47;;;4.00;;
11453;SDS011;5783;55.174;61.310;2022-11-20T04:47:47;5.07;;;4.27;;
11453;SDS011;5783;55.174;61.310;2022-11-20T04:50:16;5.37;;;4.03;;
11453;SDS011;5783;55.174;61.310;2022-11-20T04:52:45;5.40;;;4.13;;
11453;SDS011;5783;55.174;61.310;2022-11-20T04:55:14;5.67;;;4.27;;
11453;SDS011;5783;55.174;61.310;2022-11-20T04:57:44;5.37;;;4.17;;
11453;SDS011;5783;55.174;61.310;2022-11-20T05:00:13;5.07;;;4.10;;
11453;SDS011;5783;55.174;61.310;2022-11-20T05:02:43;7.87;;;4.77;;
11453;SDS011;5783;55.174;61.310;2022-11-20T05:05:12;7.90;;;5.10;;
11453;SDS011;5783;55.174;61.310;2022-11-20T05:07:42;6.77;;;4.87;;
11453;SDS011;5783;55.174;61.310;2022-11-20T05:10:11;8.10;;;5.87;;
11453;SDS011;5783;55.174;61.310;2022-11-20T05:12:40;8.30;;;5.43;;
11453;SDS011;5783;55.174;61.310;2022-11-20T05:15:09;6.70;;;4.90;;
11453;SDS011;5783;55.174;61.310;2022-11-20T05:17:38;8.27;;;4.93;;
11453;SDS011;5783;55.174;61.310;2022-11-20T05:20:08;6.67;;;5.17;;
11453;SDS011;5783;55.174;61.310;2022-11-20T05:22:38;7.13;;;5.17;;
11453;SDS011;5783;55.174;61.310;2022-11-20T05:25:07;6.20;;;4.73;;
11453;SDS011;5783;55.174;61.310;2022-11-20T05:27:36;6.67;;;4.80;;
11453;SDS011;5783;55.174;61.310;2022-11-20T05:30:06;5.90;;;4.40;;
11453;SDS011;5783;55.174;61.310;2022-11-20T05:32:36;6.23;;;4.60;;
11453;SDS011;5783;55.174;61.310;2022-11-20T05:35:05;6.70;;;4.70;;
11453;SDS011;5783;55.174;61.310;2022-11-20T05:37:35;5.67;;;4.43;;
11453;SDS011;5783;55.174;61.310;2022-11-20T05:40:04;7.10;;;4.40;;
11453;SDS011;5783;55.174;61.310;2022-11-20T05:42:34;7.33;;;4.73;;
11453;SDS011;5783;55.174;61.310;2022-11-20T05:45:03;7.40;;;4.80;;
11453;SDS011;5783;55.174;61.310;2022-11-20T05:47:33;6.37;;;4.70;;
11453;SDS011;5783;55.174;61.310;2022-11-20T05:50:02;7.10;;;4.67;;
11453;SDS011;5783;55.174;61.310;2022-11-20T05:52:32;6.63;;;4.60;;
11453;SDS011;5783;55.174;61.310;2022-11-20T05:55:01;6.07;;;4.60;;
11453;SDS011;5783;55.174;61.310;2022-11-20T05:57:30;7.00;;;4.80;;
11453;SDS011;5783;55.174;61.310;2022-11-20T05:59:59;6.53;;;4.80;;
11453;SDS011;5783;55.174;61.310;2022-11-20T06:02:31;8.67;;;5.37;;
11453;SDS011;5783;55.174;61.310;2022-11-20T06:05:03;6.97;;;4.80;;
11453;SDS011;5783;55.174;61.310;2022-11-20T06:07:32;7.60;;;5.17;;
11453;SDS011;5783;55.174;61.310;2022-11-20T06:10:02;8.53;;;4.73;;
11453;SDS011;5783;55.174;61.310;2022-11-20T06:12:31;7.53;;;5.23;;
11453;SDS011;5783;55.174;61.310;2022-11-20T06:15:01;7.70;;;5.00;;
11453;SDS011;5783;55.174;61.310;2022-11-20T06:17:30;8.17;;;4.87;;
11453;SDS011;5783;55.174;61.310;2022-11-20T06:19:59;6.70;;;4.97;;
11453;SDS011;5783;55.174;61.310;2022-11-20T06:22:30;7.30;;;5.23;;
11453;SDS011;5783;55.174;61.310;2022-11-20T06:25:00;7.70;;;5.47;;
11453;SDS011;5783;55.174;61.310;2022-11-20T06:27:30;6.80;;;4.83;;
11453;SDS011;5783;55.174;61.310;2022-11-20T06:29:59;6.37;;;4.93;;
11453;SDS011;5783;55.174;61.310;2022-11-20T06:32:29;6.57;;;4.53;;
11453;SDS011;5783;55.174;61.310;2022-11-20T06:34:58;6.00;;;4.90;;
11453;SDS011;5783;55.174;61.310;2022-11-20T06:37:27;8.30;;;4.93;;
11453;SDS011;5783;55.174;61.310;2022-11-20T06:39:56;6.30;;;4.60;;
11453;SDS011;5783;55.174;61.310;2022-11-20T06:42:26;6.80;;;4.90;;
11453;SDS011;5783;55.174;61.310;2022-11-20T06:44:55;6.73;;;5.13;;
11453;SDS011;5783;55.174;61.310;2022-11-20T06:47:24;7.40;;;5.30;;
11453;SDS011;5783;55.174;61.310;2022-11-20T06:49:53;6.07;;;4.80;;
11453;SDS011;5783;55.174;61.310;2022-11-20T06:52:22;7.23;;;4.87;;
11453;SDS011;5783;55.174;61.310;2022-11-20T06:54:51;7.57;;;5.10;;
11453;SDS011;5783;55.174;61.310;2022-11-20T06:57:21;6.93;;;4.90;;
11453;SDS011;5783;55.174;61.310;2022-11-20T06:59:50;6.80;;;4.80;;
11453;SDS011;5783;55.174;61.310;2022-11-20T07:02:19;7.07;;;4.50;;
11453;SDS011;5783;55.174;61.310;2022-11-20T07:04:48;6.97;;;5.10;;
11453;SDS011;5783;55.174;61.310;2022-11-20T07:07:19;6.80;;;4.60;;
11453;SDS011;5783;55.174;61.310;2022-11-20T07:09:48;5.57;;;4.40;;
11453;SDS011;5783;55.174;61.310;2022-11-20T07:12:17;7.00;;;4.87;;
11453;SDS011;5783;55.174;61.310;2022-11-20T07:14:48;6.07;;;4.40;;
11453;SDS011;5783;55.174;61.310;2022-11-20T07:17:17;6.33;;;4.30;;
11453;SDS011;5783;55.174;61.310;2022-11-20T07:19:47;5.57;;;4.43;;
11453;SDS011;5783;55.174;61.310;2022-11-20T07:22:16;8.03;;;4.33;;
11453;SDS011;5783;55.174;61.310;2022-11-20T07:24:46;7.37;;;5.00;;
11453;SDS011;5783;55.174;61.310;2022-11-20T07:27:16;7.27;;;5.10;;
11453;SDS011;5783;55.174;61.310;2022-11-20T07:29:45;7.17;;;4.77;;
11453;SDS011;5783;55.174;61.310;2022-11-20T07:32:14;6.33;;;5.10;;
11453;SDS011;5783;55.174;61.310;2022-11-20T07:34:44;7.10;;;4.87;;
11453;SDS011;5783;55.174;61.310;2022-11-20T07:37:13;8.03;;;4.60;;
11453;SDS011;5783;55.174;61.310;2022-11-20T07:39:43;8.57;;;4.97;;
11453;SDS011;5783;55.174;61.310;2022-11-20T07:42:12;7.70;;;5.10;;
11453;SDS011;5783;55.174;61.310;2022-11-20T07:44:41;6.87;;;4.77;;
11453;SDS011;5783;55.174;61.310;2022-11-20T07:47:10;5.87;;;4.30;;
11453;SDS011;5783;55.174;61.310;2022-11-20T07:49:39;6.90;;;4.83;;
11453;SDS011;5783;55.174;61.310;2022-11-20T07:52:08;6.13;;;4.50;;
11453;SDS011;5783;55.174;61.310;2022-11-20T07:54:38;6.93;;;4.90;;
11453;SDS011;5783;55.174;61.310;2022-11-20T07:57:07;9.17;;;4.67;;
11453;SDS011;5783;55.174;61.310;2022-11-20T07:59:36;7.90;;;5.03;;
11453;SDS011;5783;55.174;61.310;2022-11-20T08:02:05;7.63;;;5.00;;
11453;SDS011;5783;55.174;61.310;2022-11-20T08:04:36;5.83;;;4.47;;
11453;SDS011;5783;55.174;61.310;2022-11-20T08:07:05;6.07;;;4.60;;
11453;SDS011;5783;55.174;61.310;2022-11-20T08:09:34;6.40;;;4.50;;
11453;SDS011;5783;55.174;61.310;2022-11-20T08:12:03;6.97;;;4.60;;
11453;SDS011;5783;55.174;61.310;2022-11-20T08:14:52;8.57;;;4.93;;
11453;SDS011;5783;55.174;61.310;2022-11-20T08:17:23;9.07;;;5.10;;
11453;SDS011;5783;55.174;61.310;2022-11-20T08:19:52;6.13;;;4.70;;
11453;SDS011;5783;55.174;61.310;2022-11-20T08:22:21;6.97;;;5.03;;
11453;SDS011;5783;55.174;61.310;2022-11-20T08:24:51;6.53;;;4.93;;
11453;SDS011;5783;55.174;61.310;2022-11-20T08:27:20;7.63;;;5.20;;
11453;SDS011;5783;55.174;61.310;2022-11-20T08:29:49;7.60;;;5.27;;
11453;SDS011;5783;55.174;61.310;2022-11-20T08:32:18;6.80;;;5.20;;
11453;SDS011;5783;55.174;61.310;2022-11-20T08:34:47;7.40;;;5.33;;
11453;SDS011;5783;55.174;61.310;2022-11-20T08:37:16;7.63;;;5.00;;
11453;SDS011;5783;55.174;61.310;2022-11-20T08:39:45;6.63;;;4.70;;
11453;SDS011;5783;55.174;61.310;2022-11-20T08:42:15;6.57;;;4.60;;
11453;SDS011;5783;55.174;61.310;2022-11-20T08:44:44;7.90;;;4.80;;
11453;SDS011;5783;55.174;61.310;2022-11-20T08:47:13;6.30;;;4.93;;
11453;SDS011;5783;55.174;61.310;2022-11-20T08:49:42;6.47;;;4.50;;
11453;SDS011;5783;55.174;61.310;2022-11-20T08:52:11;6.80;;;4.90;;
11453;SDS011;5783;55.174;61.310;2022-11-20T08:54:40;6.53;;;5.00;;
11453;SDS011;5783;55.174;61.310;2022-11-20T08:57:09;6.57;;;4.60;;
11453;SDS011;5783;55.174;61.310;2022-11-20T08:59:38;8.10;;;5.00;;
11453;SDS011;5783;55.174;61.310;2022-11-20T09:02:07;5.73;;;4.87;;
11453;SDS011;5783;55.174;61.310;2022-11-20T09:04:37;6.80;;;4.90;;
11453;SDS011;5783;55.174;61.310;2022-11-20T09:07:07;7.50;;;5.00;;
11453;SDS011;5783;55.174;61.310;2022-11-20T09:09:36;6.83;;;4.77;;
11453;SDS011;5783;55.174;61.310;2022-11-20T09:12:05;6.23;;;4.60;;
11453;SDS011;5783;55.174;61.310;2022-11-20T09:14:34;7.40;;;4.93;;
11453;SDS011;5783;55.174;61.310;2022-11-20T09:17:03;8.73;;;5.17;;
11453;SDS011;5783;55.174;61.310;2022-11-20T09:19:33;7.40;;;5.30;;
11453;SDS011;5783;55.174;61.310;2022-11-20T09:22:02;6.70;;;4.80;;
11453;SDS011;5783;55.174;61.310;2022-11-20T09:24:32;6.03;;;4.93;;
11453;SDS011;5783;55.174;61.310;2022-11-20T09:27:01;6.13;;;5.03;;
11453;SDS011;5783;55.174;61.310;2022-11-20T09:29:50;6.47;;;5.03;;
11453;SDS011;5783;55.174;61.310;2022-11-20T09:32:19;7.73;;;5.50;;
11453;SDS011;5783;55.174;61.310;2022-11-20T09:34:48;6.53;;;5.20;;
11453;SDS011;5783;55.174;61.310;2022-11-20T09:37:17;7.33;;;5.73;;
11453;SDS011;5783;55.174;61.310;2022-11-20T09:39:46;6.77;;;5.10;;
11453;SDS011;5783;55.174;61.310;2022-11-20T09:54:33;7.13;;;5.10;;
11453;SDS011;5783;55.174;61.310;2022-11-20T09:57:23;7.30;;;4.77;;
11453;SDS011;5783;55.174;61.310;2022-11-20T10:05:39;6.40;;;4.50;;
11453;SDS011;5783;55.174;61.310;2022-11-20T10:30:24;6.93;;;4.50;;
11453;SDS011;5783;55.174;61.310;2022-11-20T10:42:03;6.60;;;5.03;;
11453;SDS011;5783;55.174;61.310;2022-11-20T10:44:35;7.27;;;4.60;;
11453;SDS011;5783;55.174;61.310;2022-11-20T10:47:26;6.07;;;4.57;;
11453;SDS011;5783;55.174;61.310;2022-11-20T10:50:00;6.67;;;4.87;;
11453;SDS011;5783;55.174;61.310;2022-11-20T10:52:51;6.27;;;4.87;;
11453;SDS011;5783;55.174;61.310;2022-11-20T11:03:50;7.93;;;5.17;;
11453;SDS011;5783;55.174;61.310;2022-11-20T11:09:13;7.10;;;4.97;;
11453;SDS011;5783;55.174;61.310;2022-11-20T11:11:44;8.27;;;5.30;;
11453;SDS011;5783;55.174;61.310;2022-11-20T11:14:14;6.40;;;5.17;;
11453;SDS011;5783;55.174;61.310;2022-11-20T11:19:34;7.57;;;5.10;;
11453;SDS011;5783;55.174;61.310;2022-11-20T11:22:04;7.33;;;5.30;;
11453;SDS011;5783;55.174;61.310;2022-11-20T11:24:36;7.80;;;5.33;;
11453;SDS011;5783;55.174;61.310;2022-11-20T11:27:10;8.10;;;4.87;;
11453;SDS011;5783;55.174;61.310;2022-11-20T11:32:45;7.13;;;5.10;;
11453;SDS011;5783;55.174;61.310;2022-11-20T11:38:06;7.13;;;4.83;;
11453;SDS011;5783;55.174;61.310;2022-11-20T11:40:37;8.83;;;5.37;;
11453;SDS011;5783;55.174;61.310;2022-11-20T11:43:16;6.83;;;4.83;;
11453;SDS011;5783;55.174;61.310;2022-11-20T12:06:45;7.43;;;5.43;;
11453;SDS011;5783;55.174;61.310;2022-11-20T12:09:16;8.33;;;5.50;;
11453;SDS011;5783;55.174;61.310;2022-11-20T12:14:56;9.37;;;5.63;;
11453;SDS011;5783;55.174;61.310;2022-11-20T12:17:26;7.73;;;5.70;;
11453;SDS011;5783;55.174;61.310;2022-11-20T12:19:56;9.17;;;5.57;;
11453;SDS011;5783;55.174;61.310;2022-11-20T12:25:35;9.40;;;6.03;;
11453;SDS011;5783;55.174;61.310;2022-11-20T12:40:41;7.67;;;5.20;;
11453;SDS011;5783;55.174;61.310;2022-11-20T12:49:50;7.20;;;5.30;;
11453;SDS011;5783;55.174;61.310;2022-11-20T13:07:27;7.30;;;5.73;;
11453;SDS011;5783;55.174;61.310;2022-11-20T13:09:58;8.07;;;5.80;;
11453;SDS011;5783;55.174;61.310;2022-11-20T13:18:29;7.33;;;5.50;;
11453;SDS011;5783;55.174;61.310;2022-11-20T13:21:01;6.87;;;5.63;;
11453;SDS011;5783;55.174;61.310;2022-11-20T13:23:31;8.27;;;5.50;;
11453;SDS011;5783;55.174;61.310;2022-11-20T13:31:43;8.23;;;5.67;;
11453;SDS011;5783;55.174;61.310;2022-11-20T13:34:14;9.30;;;6.10;;
11453;SDS011;5783;55.174;61.310;2022-11-20T13:37:03;7.30;;;5.40;;
11453;SDS011;5783;55.174;61.310;2022-11-20T13:39:34;8.43;;;5.63;;
11453;SDS011;5783;55.174;61.310;2022-11-20T13:44:54;9.10;;;6.00;;
11453;SDS011;5783;55.174;61.310;2022-11-20T13:47:26;7.17;;;5.23;;
11453;SDS011;5783;55.174;61.310;2022-11-20T13:49:57;8.27;;;5.83;;
11453;SDS011;5783;55.174;61.310;2022-11-20T14:03:49;6.70;;;5.40;;
11453;SDS011;5783;55.174;61.310;2022-11-20T14:09:29;7.83;;;5.63;;
11453;SDS011;5783;55.174;61.310;2022-11-20T14:11:59;10.13;;;5.60;;
11453;SDS011;5783;55.174;61.310;2022-11-20T14:14:30;7.30;;;5.83;;
11453;SDS011;5783;55.174;61.310;2022-11-20T14:25:35;7.97;;;5.57;;
11453;SDS011;5783;55.174;61.310;2022-11-20T14:28:04;7.33;;;5.60;;
11453;SDS011;5783;55.174;61.310;2022-11-20T14:33:25;9.30;;;5.73;;
11453;SDS011;5783;55.174;61.310;2022-11-20T14:35:55;8.17;;;6.20;;
11453;SDS011;5783;55.174;61.310;2022-11-20T14:38:26;7.27;;;5.90;;
11453;SDS011;5783;55.174;61.310;2022-11-20T14:43:50;7.50;;;6.00;;
11453;SDS011;5783;55.174;61.310;2022-11-20T14:46:19;8.50;;;5.97;;
11453;SDS011;5783;55.174;61.310;2022-11-20T14:48:50;7.00;;;5.63;;
11453;SDS011;5783;55.174;61.310;2022-11-20T14:57:02;7.63;;;5.10;;
11453;SDS011;5783;55.174;61.310;2022-11-20T14:59:33;5.63;;;4.60;;
11453;SDS011;5783;55.174;61.310;2022-11-20T15:02:03;7.90;;;5.00;;
11453;SDS011;5783;55.174;61.310;2022-11-20T15:04:44;7.40;;;5.00;;
11453;SDS011;5783;55.174;61.310;2022-11-20T15:16:18;7.70;;;4.70;;
11453;SDS011;5783;55.174;61.310;2022-11-20T15:19:12;6.33;;;4.83;;
11453;SDS011;5783;55.174;61.310;2022-11-20T15:32:30;6.00;;;4.30;;
11453;SDS011;5783;55.174;61.310;2022-11-20T15:34:59;5.60;;;4.30;;
11453;SDS011;5783;55.174;61.310;2022-11-20T15:37:30;6.77;;;4.60;;
11453;SDS011;5783;55.174;61.310;2022-11-20T15:39:59;6.03;;;4.43;;
11453;SDS011;5783;55.174;61.310;2022-11-20T15:42:30;5.47;;;4.40;;
11453;SDS011;5783;55.174;61.310;2022-11-20T15:44:59;5.70;;;4.30;;
11453;SDS011;5783;55.174;61.310;2022-11-20T15:47:30;6.83;;;4.33;;
11453;SDS011;5783;55.174;61.310;2022-11-20T15:50:02;6.13;;;4.47;;
11453;SDS011;5783;55.174;61.310;2022-11-20T15:52:31;5.87;;;4.37;;
11453;SDS011;5783;55.174;61.310;2022-11-20T15:55:00;4.90;;;4.03;;
11453;SDS011;5783;55.174;61.310;2022-11-20T15:57:30;6.10;;;4.17;;
11453;SDS011;5783;55.174;61.310;2022-11-20T15:59:59;5.73;;;4.27;;
11453;SDS011;5783;55.174;61.310;2022-11-20T16:02:30;5.87;;;4.80;;
11453;SDS011;5783;55.174;61.310;2022-11-20T16:04:59;6.77;;;4.27;;
11453;SDS011;5783;55.174;61.310;2022-11-20T16:07:30;5.17;;;4.20;;
11453;SDS011;5783;55.174;61.310;2022-11-20T16:09:59;4.70;;;4.00;;
11453;SDS011;5783;55.174;61.310;2022-11-20T16:12:29;5.90;;;3.93;;
11453;SDS011;5783;55.174;61.310;2022-11-20T16:15:18;5.73;;;4.03;;
11453;SDS011;5783;55.174;61.310;2022-11-20T16:18:08;5.07;;;4.13;;
11453;SDS011;5783;55.174;61.310;2022-11-20T16:20:38;5.43;;;4.00;;
11453;SDS011;5783;55.174;61.310;2022-11-20T16:23:08;5.30;;;3.93;;
11453;SDS011;5783;55.174;61.310;2022-11-20T16:25:37;5.20;;;4.13;;
11453;SDS011;5783;55.174;61.310;2022-11-20T16:28:06;5.33;;;3.87;;
11453;SDS011;5783;55.174;61.310;2022-11-20T16:30:36;5.10;;;4.00;;
11453;SDS011;5783;55.174;61.310;2022-11-20T16:35:55;5.80;;;4.40;;
11453;SDS011;5783;55.174;61.310;2022-11-20T16:38:24;5.40;;;3.80;;
11453;SDS011;5783;55.174;61.310;2022-11-20T16:40:53;5.67;;;4.00;;
11453;SDS011;5783;55.174;61.310;2022-11-20T16:43:25;5.10;;;3.90;;
11453;SDS011;5783;55.174;61.310;2022-11-20T16:45:54;5.67;;;4.23;;
11453;SDS011;5783;55.174;61.310;2022-11-20T16:48:23;5.37;;;3.87;;
11453;SDS011;5783;55.174;61.310;2022-11-20T16:50:52;4.93;;;3.63;;
11453;SDS011;5783;55.174;61.310;2022-11-20T16:53:22;4.83;;;4.00;;
11453;SDS011;5783;55.174;61.310;2022-11-20T16:55:51;5.83;;;4.20;;
11453;SDS011;5783;55.174;61.310;2022-11-20T17:01:09;5.33;;;3.97;;
11453;SDS011;5783;55.174;61.310;2022-11-20T17:03:40;6.07;;;4.43;;
11453;SDS011;5783;55.174;61.310;2022-11-20T17:06:31;6.47;;;4.30;;
11453;SDS011;5783;55.174;61.310;2022-11-20T17:09:02;4.47;;;3.93;;
11453;SDS011;5783;55.174;61.310;2022-11-20T17:11:33;5.63;;;4.17;;
11453;SDS011;5783;55.174;61.310;2022-11-20T17:14:04;5.73;;;4.10;;
11453;SDS011;5783;55.174;61.310;2022-11-20T17:16:35;5.27;;;4.27;;
11453;SDS011;5783;55.174;61.310;2022-11-20T17:19:04;5.17;;;4.23;;
11453;SDS011;5783;55.174;61.310;2022-11-20T17:21:34;6.17;;;4.40;;
11453;SDS011;5783;55.174;61.310;2022-11-20T17:26:37;4.40;;;3.60;;
11453;SDS011;5783;55.174;61.310;2022-11-20T17:31:57;7.30;;;4.37;;
11453;SDS011;5783;55.174;61.310;2022-11-20T17:34:26;6.33;;;4.70;;
11453;SDS011;5783;55.174;61.310;2022-11-20T17:36:55;5.97;;;4.50;;
11453;SDS011;5783;55.174;61.310;2022-11-20T17:39:24;5.17;;;4.10;;
11453;SDS011;5783;55.174;61.310;2022-11-20T17:41:55;7.23;;;4.20;;
11453;SDS011;5783;55.174;61.310;2022-11-20T17:44:44;5.40;;;4.43;;
11453;SDS011;5783;55.174;61.310;2022-11-20T17:47:13;5.40;;;4.50;;
11453;SDS011;5783;55.174;61.310;2022-11-20T17:49:42;5.33;;;3.90;;
11453;SDS011;5783;55.174;61.310;2022-11-20T17:52:11;5.20;;;3.93;;
11453;SDS011;5783;55.174;61.310;2022-11-20T17:54:40;6.07;;;4.63;;
11453;SDS011;5783;55.174;61.310;2022-11-20T17:57:09;5.73;;;4.30;;
11453;SDS011;5783;55.174;61.310;2022-11-20T17:59:58;5.87;;;3.87;;
11453;SDS011;5783;55.174;61.310;2022-11-20T18:02:27;5.23;;;4.20;;
11453;SDS011;5783;55.174;61.310;2022-11-20T18:04:56;5.27;;;4.03;;
11453;SDS011;5783;55.174;61.310;2022-11-20T18:07:25;5.23;;;4.20;;
11453;SDS011;5783;55.174;61.310;2022-11-20T18:09:54;5.93;;;4.23;;
11453;SDS011;5783;55.174;61.310;2022-11-20T18:12:24;5.70;;;4.00;;
11453;SDS011;5783;55.174;61.310;2022-11-20T18:14:53;5.53;;;4.37;;
11453;SDS011;5783;55.174;61.310;2022-11-20T18:17:22;5.37;;;4.10;;
11453;SDS011;5783;55.174;61.310;2022-11-20T18:19:51;5.73;;;4.23;;
11453;SDS011;5783;55.174;61.310;2022-11-20T18:22:20;5.10;;;4.43;;
11453;SDS011;5783;55.174;61.310;2022-11-20T18:24:49;4.60;;;3.97;;
11453;SDS011;5783;55.174;61.310;2022-11-20T18:27:19;5.70;;;4.50;;
11453;SDS011;5783;55.174;61.310;2022-11-20T18:29:48;5.63;;;4.20;;
11453;SDS011;5783;55.174;61.310;2022-11-20T18:32:18;5.57;;;4.23;;
11453;SDS011;5783;55.174;61.310;2022-11-20T18:34:48;6.90;;;4.50;;
11453;SDS011;5783;55.174;61.310;2022-11-20T18:37:18;4.97;;;4.00;;
11453;SDS011;5783;55.174;61.310;2022-11-20T18:39:47;5.27;;;4.23;;
11453;SDS011;5783;55.174;61.310;2022-11-20T18:42:16;6.30;;;4.37;;
11453;SDS011;5783;55.174;61.310;2022-11-20T18:45:05;5.87;;;4.30;;
11453;SDS011;5783;55.174;61.310;2022-11-20T18:47:35;5.10;;;4.07;;
11453;SDS011;5783;55.174;61.310;2022-11-20T18:50:05;4.97;;;4.13;;
11453;SDS011;5783;55.174;61.310;2022-11-20T18:55:24;5.70;;;4.30;;
11453;SDS011;5783;55.174;61.310;2022-11-20T18:57:53;5.50;;;4.13;;
11453;SDS011;5783;55.174;61.310;2022-11-20T19:00:23;5.60;;;4.40;;
11453;SDS011;5783;55.174;61.310;2022-11-20T19:02:52;5.90;;;4.20;;
11453;SDS011;5783;55.174;61.310;2022-11-20T19:05:21;5.77;;;4.30;;
11453;SDS011;5783;55.174;61.310;2022-11-20T19:07:50;6.10;;;4.40;;
11453;SDS011;5783;55.174;61.310;2022-11-20T19:10:20;5.20;;;4.23;;
11453;SDS011;5783;55.174;61.310;2022-11-20T19:12:49;5.47;;;4.00;;